createdAt,value
2022-09-20T00:02:03.010Z,943.41
2022-09-20T00:04:11.515Z,943.31
2022-09-20T00:04:46.023Z,943.31
2022-09-20T00:06:18.981Z,943.11
2022-09-20T00:06:49.214Z,943.11
2022-09-20T00:08:26.811Z,943.21
2022-09-20T00:08:55.074Z,943.21
2022-09-20T00:10:35.836Z,943.11
2022-09-20T00:10:57.580Z,943.11
2022-09-20T00:12:42.982Z,942.94
2022-09-20T00:13:01.606Z,942.94
2022-09-20T00:14:50.896Z,943.21
2022-09-20T00:16:59.210Z,943.21
2022-09-20T00:19:07.374Z,943.11
2022-09-20T00:21:16.021Z,943.31
2022-09-20T00:21:48.500Z,943.31
2022-09-20T00:23:23.105Z,943.04
2022-09-20T00:23:52.485Z,943.04
2022-09-20T00:25:30.944Z,942.94
2022-09-20T00:25:56.404Z,942.94
2022-09-20T00:27:39.105Z,943.11
2022-09-20T00:28:00.252Z,943.11
2022-09-20T00:29:47.176Z,943.21
2022-09-20T00:30:08.857Z,943.21
2022-09-20T00:31:55.960Z,943.21
2022-09-20T00:34:03.082Z,943.04
2022-09-20T00:36:11.505Z,943.21
2022-09-20T00:36:47.505Z,943.21
2022-09-20T00:38:19.025Z,943.04
2022-09-20T00:38:51.292Z,943.04
2022-09-20T00:40:27.738Z,943.04
2022-09-20T00:40:56.128Z,943.04
2022-09-20T00:42:38.058Z,943.11
2022-09-20T00:42:59.968Z,943.11
2022-09-20T00:54:26.032Z,943.04
2022-09-20T00:55:25.607Z,942.94
2022-09-20T00:55:56.218Z,942.94
2022-09-20T00:57:30.978Z,943.11
2022-09-20T00:57:58.331Z,943.11
2022-09-20T00:59:38.990Z,942.94
2022-09-20T01:06:02.906Z,942.94
2022-09-20T01:08:11.458Z,943.04
2022-09-20T01:10:18.896Z,943.04
2022-09-20T01:10:55.192Z,943.04
2022-09-20T01:12:26.978Z,942.94
2022-09-20T01:12:57.386Z,942.94
2022-09-20T01:14:36.079Z,942.84
2022-09-20T01:15:04.269Z,942.84
2022-09-20T01:16:43.071Z,942.73
2022-09-20T01:17:06.021Z,942.73
2022-09-20T01:18:50.924Z,942.84
2022-09-20T01:19:09.532Z,942.84
2022-09-20T01:20:58.985Z,943.04
2022-09-20T01:23:06.990Z,942.84
2022-09-20T01:25:16.050Z,942.73
2022-09-20T01:25:52.358Z,942.73
2022-09-20T01:27:23.029Z,943.04
2022-09-20T01:27:56.491Z,943.04
2022-09-20T01:29:30.930Z,942.94
2022-09-20T01:30:03.336Z,942.94
2022-09-20T01:31:39.303Z,943.04
2022-09-20T01:32:06.193Z,943.04
2022-09-20T01:33:47.087Z,942.94
2022-09-20T01:34:08.535Z,942.94
2022-09-20T01:35:56.037Z,942.84
2022-09-20T01:36:12.498Z,943.04
2022-09-20T01:38:03.103Z,942.94
2022-09-20T01:40:11.766Z,942.94
2022-09-20T01:42:18.904Z,943.04
2022-09-20T01:42:55.994Z,943.04
2022-09-20T01:44:27.034Z,942.73
2022-09-20T01:44:59.770Z,942.73
2022-09-20T01:46:36.006Z,943.04
2022-09-20T01:47:05.142Z,943.04
2022-09-20T01:48:42.935Z,943.04
2022-09-20T01:49:07.688Z,943.04
2022-09-20T01:50:50.960Z,942.94
2022-09-20T01:51:11.521Z,943.04
2022-09-20T01:52:58.885Z,942.84
2022-09-20T01:53:15.734Z,942.84
2022-09-20T01:55:06.878Z,942.94
2022-09-20T01:57:15.744Z,942.94
2022-09-20T01:59:24.475Z,942.94
2022-09-20T01:59:58.541Z,942.94
2022-09-20T02:01:31.032Z,943.11
2022-09-20T02:02:02.562Z,943.11
2022-09-20T02:03:39.021Z,943.11
2022-09-20T02:04:06.531Z,943.11
2022-09-20T02:05:47.141Z,942.94
2022-09-20T02:06:10.629Z,942.84
2022-09-20T02:07:55.862Z,942.84
2022-09-20T02:08:15.730Z,942.84
2022-09-20T02:10:03.242Z,943.04
2022-09-20T02:12:11.577Z,943.04
2022-09-20T02:14:19.098Z,943.21
2022-09-20T02:16:26.969Z,943.04
2022-09-20T02:17:01.402Z,943.04
2022-09-20T02:18:36.132Z,943.11
2022-09-20T02:19:06.085Z,943.11
2022-09-20T02:20:42.821Z,943.11
2022-09-20T02:21:09.383Z,943.11
2022-09-20T02:22:51.191Z,943.04
2022-09-20T02:23:14.958Z,942.84
2022-09-20T02:24:59.048Z,943.11
2022-09-20T02:25:17.459Z,942.84
2022-09-20T02:27:07.145Z,943.11
2022-09-20T02:29:15.732Z,943.04
2022-09-20T02:31:23.239Z,942.63
2022-09-20T02:32:00.506Z,942.63
2022-09-20T02:33:30.737Z,942.84
2022-09-20T02:34:05.929Z,942.84
2022-09-20T02:35:39.136Z,942.94
2022-09-20T02:36:08.376Z,942.94
2022-09-20T02:37:47.061Z,942.94
2022-09-20T02:38:12.483Z,942.94
2022-09-20T02:39:56.056Z,942.94
2022-09-20T02:40:16.649Z,943.11
2022-09-20T02:42:03.071Z,943.11
2022-09-20T02:42:20.693Z,943.21
2022-09-20T02:44:11.778Z,943.04
2022-09-20T02:46:19.086Z,942.84
2022-09-20T02:48:27.029Z,942.94
2022-09-20T02:49:04.917Z,942.94
2022-09-20T02:50:36.072Z,942.84
2022-09-20T02:51:07.470Z,942.84
2022-09-20T02:52:43.031Z,942.94
2022-09-20T02:53:11.593Z,942.84
2022-09-20T02:54:50.992Z,942.94
2022-09-20T02:55:15.775Z,942.94
2022-09-20T02:56:58.869Z,943.04
2022-09-20T02:57:19.413Z,942.94
2022-09-20T02:59:07.268Z,943.04
2022-09-20T02:59:25.155Z,942.94
2022-09-20T03:01:15.785Z,943.11
2022-09-20T03:03:23.098Z,943.04
2022-09-20T03:05:30.846Z,942.94
2022-09-20T03:06:06.514Z,942.94
2022-09-20T03:07:39.089Z,942.84
2022-09-20T03:08:10.515Z,942.94
2022-09-20T03:09:47.017Z,942.94
2022-09-20T03:10:15.824Z,943.11
2022-09-20T03:11:56.065Z,943.04
2022-09-20T03:12:18.549Z,942.94
2022-09-20T03:14:03.022Z,942.94
2022-09-20T03:14:22.503Z,943.21
2022-09-20T03:16:11.845Z,943.11
2022-09-20T03:18:19.008Z,943.11
2022-09-20T03:20:26.861Z,943.21
2022-09-20T03:25:15.022Z,943.21
2022-09-20T03:26:51.107Z,942.94
2022-09-20T03:27:17.452Z,943.04
2022-09-20T03:28:59.180Z,943.04
2022-09-20T03:29:21.612Z,943.11
2022-09-20T03:31:07.131Z,942.94
2022-09-20T03:31:26.185Z,943.11
2022-09-20T03:33:15.893Z,943.04
2022-09-20T03:35:22.991Z,943.11
2022-09-20T03:37:30.867Z,942.94
2022-09-20T03:38:08.628Z,942.94
2022-09-20T03:39:39.090Z,942.94
2022-09-20T03:40:12.771Z,942.94
2022-09-20T03:41:46.999Z,943.04
2022-09-20T03:42:16.454Z,942.94
2022-09-20T03:43:56.167Z,943.04
2022-09-20T03:44:20.595Z,943.11
2022-09-20T03:46:02.926Z,943.04
2022-09-20T03:46:25.941Z,943.04
2022-09-20T03:48:11.527Z,943.04
2022-09-20T03:48:28.472Z,943.04
2022-09-20T03:50:18.906Z,943.11
2022-09-20T03:52:27.057Z,943.04
2022-09-20T03:54:35.969Z,943.04
2022-09-20T03:55:11.636Z,943.04
2022-09-20T03:56:42.817Z,942.73
2022-09-20T03:57:16.028Z,943.11
2022-09-20T03:58:51.004Z,943.11
2022-09-20T03:59:19.689Z,943.11
2022-09-20T04:01:01.853Z,942.84
2022-09-20T04:01:25.236Z,942.84
2022-09-20T04:03:07.056Z,943.11
2022-09-20T04:03:27.740Z,943.04
2022-09-20T04:05:15.888Z,942.94
2022-09-20T04:07:23.091Z,943.04
2022-09-20T04:09:30.815Z,942.94
2022-09-20T04:11:39.089Z,943.04
2022-09-20T04:12:15.865Z,943.11
2022-09-20T04:13:47.076Z,943.04
2022-09-20T04:14:18.496Z,943.11
2022-09-20T04:15:59.028Z,943.11
2022-09-20T04:16:22.653Z,943.04
2022-09-20T04:18:03.048Z,943.04
2022-09-20T04:18:26.303Z,943.04
2022-09-20T04:20:11.599Z,943.21
2022-09-20T04:20:30.239Z,943.21
2022-09-20T04:22:19.115Z,943.04
2022-09-20T04:22:36.167Z,943.04
2022-09-20T04:24:27.115Z,943.04
2022-09-20T04:26:36.249Z,943.04
2022-09-20T04:28:42.919Z,943.11
2022-09-20T04:29:17.475Z,943.11
2022-09-20T04:30:53.761Z,943.04
2022-09-20T04:31:21.599Z,942.94
2022-09-20T04:32:58.744Z,943.04
2022-09-20T04:33:26.039Z,943.11
2022-09-20T04:35:07.114Z,943.11
2022-09-20T04:35:29.431Z,943.21
2022-09-20T04:37:15.998Z,943.11
2022-09-20T04:37:34.854Z,943.11
2022-09-20T04:39:23.080Z,943.11
2022-09-20T04:41:32.546Z,943.04
2022-09-20T04:43:39.089Z,943.04
2022-09-20T04:44:16.385Z,942.94
2022-09-20T04:45:49.803Z,943.04
2022-09-20T04:46:20.388Z,943.21
2022-09-20T04:47:56.001Z,943.04
2022-09-20T04:48:26.106Z,943.21
2022-09-20T04:50:02.965Z,943.11
2022-09-20T04:50:28.660Z,943.04
2022-09-20T04:52:11.750Z,943.04
2022-09-20T04:52:32.535Z,943.04
2022-09-20T04:54:18.994Z,943.11
2022-09-20T04:54:36.534Z,943.11
2022-09-20T04:56:31.115Z,943.11
2022-09-20T04:58:35.931Z,943.11
2022-09-20T05:00:45.801Z,943.21
2022-09-20T05:01:19.734Z,943.21
2022-09-20T05:02:51.073Z,943.11
2022-09-20T05:03:24.991Z,943.31
2022-09-20T05:04:59.020Z,943.21
2022-09-20T05:05:27.523Z,943.51
2022-09-20T05:07:07.306Z,943.21
2022-09-20T05:07:31.479Z,943.31
2022-09-20T05:09:16.264Z,943.31
2022-09-20T05:09:36.220Z,943.31
2022-09-20T05:11:23.374Z,943.11
2022-09-20T05:11:39.816Z,943.11
2022-09-20T05:13:31.339Z,943.31
2022-09-20T05:15:42.043Z,943.41
2022-09-20T05:17:47.195Z,943.31
2022-09-20T05:18:22.792Z,943.31
2022-09-20T05:19:56.336Z,943.31
2022-09-20T05:20:26.872Z,943.31
2022-09-20T05:22:03.189Z,943.21
2022-09-20T05:22:30.756Z,943.41
2022-09-20T05:24:12.664Z,943.21
2022-09-20T05:24:36.241Z,943.21
2022-09-20T05:26:19.426Z,943.31
2022-09-20T05:26:38.858Z,943.31
2022-09-20T05:28:27.299Z,943.31
2022-09-20T05:30:39.051Z,943.41
2022-09-20T05:32:43.318Z,943.51
2022-09-20T05:34:51.467Z,943.21
2022-09-20T05:35:26.035Z,943.51
2022-09-20T05:36:59.147Z,943.51
2022-09-20T05:37:29.642Z,943.62
2022-09-20T05:39:07.347Z,943.41
2022-09-20T05:39:35.230Z,943.41
2022-09-20T05:41:16.403Z,943.31
2022-09-20T05:41:37.868Z,943.31
2022-09-20T05:43:23.343Z,943.31
2022-09-20T05:43:41.844Z,943.31
2022-09-20T05:45:34.226Z,943.41
2022-09-20T05:47:39.191Z,943.41
2022-09-20T05:49:47.144Z,943.51
2022-09-20T05:51:56.535Z,943.31
2022-09-20T05:52:29.074Z,943.21
2022-09-20T05:54:03.211Z,943.62
2022-09-20T05:54:32.652Z,943.41
2022-09-20T05:56:11.803Z,943.51
2022-09-20T05:56:36.870Z,943.51
2022-09-20T05:58:19.351Z,943.62
2022-09-20T05:58:40.821Z,943.62
2022-09-20T06:00:29.903Z,943.41
2022-09-20T06:00:46.327Z,943.41
2022-09-20T06:02:36.392Z,943.51
2022-09-20T06:04:43.371Z,943.51
2022-09-20T06:06:51.290Z,943.51
2022-09-20T06:07:27.622Z,943.41
2022-09-20T06:08:59.254Z,943.72
2022-09-20T06:09:31.644Z,943.51
2022-09-20T06:11:07.445Z,943.51
2022-09-20T06:11:36.338Z,943.31
2022-09-20T06:13:16.458Z,943.62
2022-09-20T06:13:39.878Z,943.62
2022-09-20T06:15:26.081Z,943.62
2022-09-20T06:15:44.938Z,943.62
2022-09-20T06:17:31.059Z,943.31
2022-09-20T06:17:47.829Z,943.31
2022-09-20T06:19:39.183Z,943.51
2022-09-20T06:21:47.339Z,943.51
2022-09-20T06:23:56.311Z,943.62
2022-09-20T06:24:30.787Z,943.41
2022-09-20T06:26:02.942Z,943.51
2022-09-20T06:26:36.403Z,943.51
2022-09-20T06:28:12.024Z,943.51
2022-09-20T06:28:38.642Z,943.51
2022-09-20T06:30:21.984Z,943.41
2022-09-20T06:30:42.869Z,943.41
2022-09-20T06:32:27.133Z,943.51
2022-09-20T06:32:46.617Z,943.51
2022-09-20T06:34:36.399Z,943.51
2022-09-20T06:36:43.153Z,943.51
2022-09-20T06:38:51.403Z,943.41
2022-09-20T06:40:59.357Z,943.51
2022-09-20T06:41:35.216Z,943.51
2022-09-20T06:43:07.505Z,943.41
2022-09-20T06:43:37.915Z,943.62
2022-09-20T06:45:18.956Z,943.51
2022-09-20T06:45:42.001Z,943.51
2022-09-20T06:47:23.542Z,943.62
2022-09-20T06:47:46.490Z,943.62
2022-09-20T06:49:31.396Z,943.62
2022-09-20T06:49:49.958Z,943.62
2022-09-20T06:51:39.383Z,943.51
2022-09-20T06:53:47.363Z,943.41
2022-09-20T06:55:56.259Z,943.51
2022-09-20T06:56:32.903Z,943.62
2022-09-20T06:58:03.204Z,943.51
2022-09-20T06:58:36.802Z,943.82
2022-09-20T07:00:14.359Z,943.51
2022-09-20T07:00:40.903Z,943.51
2022-09-20T07:02:19.443Z,943.51
2022-09-20T07:02:46.283Z,943.51
2022-09-20T07:04:27.408Z,943.82
2022-09-20T07:04:48.843Z,943.82
2022-09-20T07:06:36.313Z,943.82
2022-09-20T07:06:52.935Z,943.82
2022-09-20T07:08:43.127Z,943.72
2022-09-20T07:10:51.159Z,943.82
2022-09-20T07:12:59.368Z,943.51
2022-09-20T07:13:36.355Z,943.51
2022-09-20T07:15:09.976Z,943.62
2022-09-20T07:15:39.758Z,943.72
2022-09-20T07:17:16.291Z,943.62
2022-09-20T07:17:45.229Z,943.62
2022-09-20T07:19:23.320Z,943.62
2022-09-20T07:19:47.744Z,943.62
2022-09-20T07:21:31.059Z,943.72
2022-09-20T07:21:51.686Z,943.72
2022-09-20T07:23:39.363Z,943.72
2022-09-20T07:23:56.271Z,943.72
2022-09-20T07:25:47.281Z,943.62
2022-09-20T07:27:56.332Z,943.72
2022-09-20T07:30:06.127Z,943.82
2022-09-20T07:30:38.613Z,943.72
2022-09-20T07:32:11.910Z,943.82
2022-09-20T07:32:42.909Z,943.82
2022-09-20T07:34:19.177Z,943.72
2022-09-20T07:34:46.707Z,943.72
2022-09-20T07:36:27.324Z,943.72
2022-09-20T07:36:50.833Z,943.72
2022-09-20T07:38:36.092Z,943.72
2022-09-20T07:38:56.416Z,943.72
2022-09-20T07:40:43.481Z,943.62
2022-09-20T07:42:55.990Z,943.82
2022-09-20T07:44:59.423Z,943.92
2022-09-20T07:47:07.360Z,943.82
2022-09-20T07:47:41.904Z,943.72
2022-09-20T07:49:16.214Z,943.92
2022-09-20T07:49:46.359Z,943.92
2022-09-20T07:51:23.679Z,943.92
2022-09-20T07:51:50.302Z,943.92
2022-09-20T07:53:31.632Z,944.02
2022-09-20T07:53:55.846Z,944.02
2022-09-20T07:55:39.730Z,943.82
2022-09-20T07:55:58.120Z,943.82
2022-09-20T07:57:47.515Z,943.92
2022-09-20T07:59:56.592Z,943.72
2022-09-20T08:02:03.621Z,943.82
2022-09-20T08:02:41.254Z,943.92
2022-09-20T08:04:12.120Z,943.92
2022-09-20T08:04:46.531Z,943.92
2022-09-20T08:06:19.720Z,943.82
2022-09-20T08:06:49.150Z,943.82
2022-09-20T10:00:17.462Z,943.72
2022-09-20T10:01:03.037Z,943.72
2022-09-20T10:01:33.397Z,943.62
2022-09-20T10:02:02.122Z,943.62
2022-09-20T10:02:33.173Z,943.92
2022-09-20T10:03:04.232Z,943.92
2022-09-20T10:03:36.151Z,943.62
2022-09-20T10:04:06.035Z,943.62
2022-09-20T10:04:37.045Z,943.62
2022-09-20T10:05:08.089Z,943.62
2022-09-20T10:05:39.199Z,943.72
2022-09-20T10:06:10.233Z,943.72
2022-09-20T10:06:41.250Z,943.72
2022-09-20T10:07:12.051Z,943.51
2022-09-20T10:07:43.141Z,943.51
2022-09-20T10:08:14.322Z,943.62
2022-09-20T10:08:46.074Z,943.62
2022-09-20T10:09:16.106Z,943.62
2022-09-20T10:09:46.896Z,943.62
2022-09-20T10:10:18.056Z,943.51
2022-09-20T10:10:49.129Z,943.51
2022-09-20T10:11:20.048Z,943.51
2022-09-20T10:11:51.092Z,943.51
2022-09-20T10:12:21.957Z,943.51
2022-09-20T10:12:53.155Z,943.51
2022-09-20T10:13:24.309Z,943.41
2022-09-20T10:13:56.278Z,943.41
2022-09-20T10:14:26.345Z,943.82
2022-09-20T10:14:57.024Z,943.82
2022-09-20T10:15:30.978Z,943.62
2022-09-20T10:15:59.323Z,943.62
2022-09-20T10:16:30.184Z,943.51
2022-09-20T10:17:01.120Z,943.51
2022-09-20T10:17:31.876Z,943.62
2022-09-20T10:18:03.155Z,943.62
2022-09-20T10:18:34.219Z,943.62
2022-09-20T10:19:06.118Z,943.62
2022-09-20T10:19:36.013Z,943.82
2022-09-20T10:20:06.970Z,943.82
2022-09-20T10:20:42.435Z,943.72
2022-09-20T10:21:09.166Z,943.72
2022-09-20T10:21:40.334Z,943.62
2022-09-20T10:22:11.326Z,943.82
2022-09-20T10:22:42.306Z,943.82
2022-09-20T10:23:45.167Z,943.62
2022-09-20T10:24:16.152Z,943.51
2022-09-20T10:24:51.018Z,943.51
2022-09-20T10:25:16.978Z,943.51
2022-09-20T10:25:47.858Z,943.51
2022-09-20T10:26:19.105Z,943.62
2022-09-20T10:26:50.261Z,943.62
2022-09-20T10:27:21.259Z,943.72
2022-09-20T10:27:52.254Z,943.72
2022-09-20T10:28:23.191Z,943.41
2022-09-20T10:28:54.196Z,943.41
2022-09-20T10:29:26.386Z,943.51
2022-09-20T10:29:56.315Z,943.51
2022-09-20T10:30:29.909Z,943.31
2022-09-20T10:30:58.127Z,943.31
2022-09-20T10:31:29.384Z,943.51
2022-09-20T10:32:00.212Z,943.51
2022-09-20T10:32:31.076Z,943.51
2022-09-20T10:33:01.955Z,943.51
2022-09-20T10:33:32.971Z,943.31
2022-09-20T10:34:04.151Z,943.31
2022-09-20T10:34:36.080Z,943.41
2022-09-20T10:35:06.156Z,943.41
2022-09-20T10:35:37.028Z,943.62
2022-09-20T10:36:08.160Z,943.62
2022-09-20T10:36:39.290Z,943.41
2022-09-20T10:37:10.262Z,943.51
2022-09-20T10:37:42.590Z,943.51
2022-09-20T10:38:12.079Z,943.51
2022-09-20T10:38:43.085Z,943.51
2022-09-20T10:39:14.001Z,943.51
2022-09-20T10:39:46.032Z,943.51
2022-09-20T10:40:16.231Z,943.51
2022-09-20T10:40:46.946Z,943.51
2022-09-20T10:41:17.879Z,943.41
2022-09-20T10:41:48.847Z,943.41
2022-09-20T10:42:20.343Z,943.31
2022-09-20T10:42:51.201Z,943.31
2022-09-20T10:43:22.069Z,943.51
2022-09-20T10:43:53.245Z,943.51
2022-09-20T10:44:24.235Z,943.41
2022-09-20T10:44:56.397Z,943.41
2022-09-20T10:45:53.294Z,943.51
2022-09-20T10:46:32.343Z,943.41
2022-09-20T10:46:59.672Z,943.41
2022-09-20T10:47:30.400Z,943.31
2022-09-20T10:48:01.164Z,943.31
2022-09-20T10:48:31.887Z,943.51
2022-09-20T10:49:02.862Z,943.51
2022-09-20T10:49:33.993Z,943.51
2022-09-20T10:50:06.142Z,943.51
2022-09-20T10:50:36.081Z,943.31
2022-09-20T10:51:06.954Z,943.31
2022-09-20T10:51:38.042Z,943.41
2022-09-20T10:52:09.464Z,943.41
2022-09-20T10:52:40.261Z,943.51
2022-09-20T10:53:11.188Z,943.41
2022-09-20T10:53:42.221Z,943.41
2022-09-20T10:54:13.162Z,943.62
2022-09-20T10:54:44.155Z,943.62
2022-09-20T10:55:16.210Z,943.62
2022-09-20T10:55:46.251Z,943.62
2022-09-20T10:56:17.015Z,943.51
2022-09-20T10:56:48.006Z,943.51
2022-09-20T10:57:19.151Z,943.21
2022-09-20T10:57:50.169Z,943.21
2022-09-20T10:58:21.217Z,943.62
2022-09-20T10:58:52.118Z,943.62
2022-09-20T10:59:23.213Z,943.51
2022-09-20T10:59:54.377Z,943.51
2022-09-20T11:00:28.949Z,943.41
2022-09-20T11:00:56.209Z,943.41
2022-09-20T11:01:27.081Z,943.41
2022-09-20T11:01:58.179Z,943.41
2022-09-20T11:02:28.958Z,943.41
2022-09-20T11:03:00.299Z,943.41
2022-09-20T11:03:31.235Z,943.41
2022-09-20T11:04:02.124Z,943.41
2022-09-20T11:04:32.920Z,943.51
2022-09-20T11:05:03.884Z,943.51
2022-09-20T11:05:36.169Z,943.51
2022-09-20T11:06:06.125Z,943.51
2022-09-20T11:06:37.122Z,943.62
2022-09-20T11:07:08.208Z,943.62
2022-09-20T11:07:39.225Z,943.62
2022-09-20T11:08:10.319Z,943.51
2022-09-20T11:08:41.253Z,943.51
2022-09-20T11:09:14.138Z,943.41
2022-09-20T11:09:43.068Z,943.41
2022-09-20T11:10:14.020Z,943.51
2022-09-20T11:10:46.291Z,943.51
2022-09-20T11:11:16.154Z,943.41
2022-09-20T11:11:47.052Z,943.41
2022-09-20T11:12:17.895Z,943.41
2022-09-20T11:12:49.107Z,943.41
2022-09-20T11:13:20.164Z,943.41
2022-09-20T11:13:51.440Z,943.41
2022-09-20T11:14:22.099Z,943.31
2022-09-20T11:14:53.129Z,943.31
2022-09-20T11:15:27.127Z,943.31
2022-09-20T11:15:56.239Z,943.31
2022-09-20T11:16:26.309Z,943.51
2022-09-20T11:16:57.180Z,943.51
2022-09-20T11:17:28.127Z,943.41
2022-09-20T11:17:58.874Z,943.41
2022-09-20T11:18:30.358Z,943.51
2022-09-20T11:19:01.296Z,943.51
2022-09-20T11:19:32.129Z,943.51
2022-09-20T11:20:07.156Z,943.51
2022-09-20T11:20:34.128Z,943.51
2022-09-20T11:21:06.292Z,943.51
2022-09-20T11:21:35.981Z,943.31
2022-09-20T11:22:07.041Z,943.31
2022-09-20T11:22:38.142Z,943.51
2022-09-20T11:23:09.213Z,943.51
2022-09-20T11:23:40.289Z,943.51
2022-09-20T11:24:11.137Z,943.41
2022-09-20T11:24:42.169Z,943.41
2022-09-20T11:25:15.730Z,943.41
2022-09-20T11:25:44.177Z,943.41
2022-09-20T11:26:16.263Z,943.51
2022-09-20T11:26:46.234Z,943.51
2022-09-20T11:27:16.905Z,943.51
2022-09-20T11:27:47.878Z,943.51
2022-09-20T11:28:19.019Z,943.51
2022-09-20T11:28:49.910Z,943.51
2022-09-20T11:29:20.936Z,943.62
2022-09-20T11:29:52.064Z,943.62
2022-09-20T11:30:25.784Z,943.72
2022-09-20T11:30:53.937Z,943.72
2022-09-20T11:31:26.358Z,943.62
2022-09-20T11:31:56.082Z,943.62
2022-09-20T11:32:26.965Z,943.82
2022-09-20T11:32:58.193Z,943.82
2022-09-20T11:33:28.974Z,943.72
2022-09-20T11:33:59.900Z,943.72
2022-09-20T11:34:31.164Z,943.72
2022-09-20T11:35:16.068Z,943.72
2022-09-20T11:35:38.689Z,943.41
2022-09-20T11:55:11.307Z,943.51
2022-09-20T11:55:42.377Z,943.51
2022-09-20T11:56:13.264Z,943.62
2022-09-20T11:56:44.021Z,943.62
2022-09-20T11:57:16.205Z,943.41
2022-09-20T11:57:46.228Z,943.41
2022-09-20T11:58:17.065Z,943.62
2022-09-20T11:58:48.003Z,943.62
2022-09-20T11:59:19.045Z,943.31
2022-09-20T11:59:50.223Z,943.31
2022-09-20T12:00:23.946Z,943.41
2022-09-20T12:00:52.188Z,943.41
2022-09-20T12:01:27.946Z,943.51
2022-09-20T12:01:54.169Z,943.51
2022-09-20T12:02:26.403Z,943.51
2022-09-20T12:02:56.401Z,943.51
2022-09-20T12:03:27.210Z,943.62
2022-09-20T12:04:14.575Z,943.62
2022-09-20T12:05:00.137Z,943.41
2022-09-20T12:05:31.439Z,943.51
2022-09-20T12:06:02.207Z,943.51
2022-09-20T12:06:32.973Z,943.31
2022-09-20T12:07:08.892Z,943.31
2022-09-20T12:07:36.133Z,943.62
2022-09-20T12:08:06.280Z,943.62
2022-09-20T12:08:37.091Z,943.72
2022-09-20T12:09:08.119Z,943.72
2022-09-20T12:09:39.134Z,943.51
2022-09-20T12:10:10.321Z,943.62
2022-09-20T12:10:41.257Z,943.62
2022-09-20T12:11:12.049Z,943.62
2022-09-20T12:11:43.293Z,943.62
2022-09-20T12:12:14.183Z,943.51
2022-09-20T12:12:46.238Z,943.51
2022-09-20T12:13:16.272Z,943.41
2022-09-20T12:13:47.193Z,943.41
2022-09-20T12:14:17.988Z,943.41
2022-09-20T12:14:49.010Z,943.41
2022-09-20T12:15:22.692Z,943.41
2022-09-20T12:15:51.362Z,943.41
2022-09-20T12:16:22.043Z,943.31
2022-09-20T12:16:53.250Z,943.31
2022-09-20T12:17:24.240Z,943.21
2022-09-20T12:17:56.330Z,943.21
2022-09-20T12:18:26.162Z,943.41
2022-09-20T12:18:57.134Z,943.41
2022-09-20T12:19:28.253Z,943.51
2022-09-20T12:19:59.176Z,943.51
2022-09-20T12:20:30.053Z,943.31
2022-09-20T12:21:01.158Z,943.31
2022-09-20T12:21:32.153Z,943.31
2022-09-20T12:22:02.894Z,943.31
2022-09-20T12:22:33.944Z,943.31
2022-09-20T12:23:06.234Z,943.31
2022-09-20T12:23:35.881Z,943.41
2022-09-20T12:24:06.972Z,943.41
2022-09-20T12:24:40.936Z,943.41
2022-09-20T12:25:09.030Z,943.41
2022-09-20T12:25:40.153Z,943.31
2022-09-20T12:26:11.118Z,943.62
2022-09-20T12:26:42.190Z,943.62
2022-09-20T12:27:13.220Z,943.31
2022-09-20T12:27:44.147Z,943.31
2022-09-20T12:28:16.349Z,943.51
2022-09-20T12:28:46.401Z,943.51
2022-09-20T12:29:17.153Z,943.51
2022-09-20T12:29:48.003Z,943.51
2022-09-20T12:30:21.629Z,943.62
2022-09-20T12:30:50.219Z,943.62
2022-09-20T12:31:21.345Z,943.21
2022-09-20T12:31:52.143Z,943.21
2022-09-20T12:32:23.061Z,943.31
2022-09-20T12:32:54.261Z,943.31
2022-09-20T12:33:26.083Z,943.21
2022-09-20T12:33:56.208Z,943.21
2022-09-20T12:34:27.021Z,943.51
2022-09-20T12:34:58.237Z,943.51
2022-09-20T12:35:29.215Z,943.41
2022-09-20T12:35:59.997Z,943.41
2022-09-20T12:36:31.309Z,943.31
2022-09-20T12:37:02.185Z,943.31
2022-09-20T12:37:33.005Z,943.62
2022-09-20T12:38:03.917Z,943.62
2022-09-20T12:38:36.145Z,943.21
2022-09-20T12:39:06.354Z,943.21
2022-09-20T12:39:37.153Z,943.21
2022-09-20T12:40:08.326Z,943.21
2022-09-20T12:40:39.148Z,943.21
2022-09-20T12:41:10.290Z,943.41
2022-09-20T12:41:41.324Z,943.41
2022-09-20T12:42:12.555Z,943.11
2022-09-20T12:42:43.266Z,943.11
2022-09-20T12:43:14.026Z,943.31
2022-09-20T12:43:46.390Z,943.31
2022-09-20T12:44:16.478Z,943.31
2022-09-20T12:44:47.210Z,943.31
2022-09-20T12:45:20.918Z,943.31
2022-09-20T12:45:49.007Z,943.31
2022-09-20T12:46:20.240Z,943.21
2022-09-20T12:46:51.173Z,943.21
2022-09-20T12:47:22.292Z,943.11
2022-09-20T12:47:53.341Z,943.11
2022-09-20T12:48:24.304Z,943.31
2022-09-20T12:48:56.197Z,943.31
2022-09-20T12:49:26.199Z,943.21
2022-09-20T12:49:57.101Z,943.21
2022-09-20T12:50:28.251Z,943.11
2022-09-20T12:50:59.323Z,943.11
2022-09-20T12:51:30.136Z,943.11
2022-09-20T12:52:01.379Z,943.11
2022-09-20T12:52:32.143Z,943.11
2022-09-20T12:53:03.005Z,943.11
2022-09-20T12:53:33.902Z,943.21
2022-09-20T12:54:06.195Z,943.21
2022-09-20T12:54:36.057Z,943.11
2022-09-20T12:55:10.934Z,943.11
2022-09-20T12:55:40.355Z,943.31
2022-09-20T12:56:09.260Z,943.31
2022-09-20T12:56:40.239Z,943.21
2022-09-20T12:57:11.297Z,943.11
2022-09-20T12:57:42.529Z,943.11
2022-09-20T12:58:13.076Z,943.21
2022-09-20T12:58:44.085Z,943.21
2022-09-20T12:59:15.991Z,943.21
2022-09-20T12:59:46.501Z,943.21
2022-09-20T13:00:20.128Z,943.21
2022-09-20T13:00:48.268Z,943.21
2022-09-20T13:01:19.082Z,943.11
2022-09-20T13:01:50.199Z,943.11
2022-09-20T13:02:21.388Z,943.11
2022-09-20T13:02:52.140Z,943.11
2022-09-20T13:03:23.124Z,943.11
2022-09-20T13:03:54.141Z,943.11
2022-09-20T13:04:26.358Z,943.11
2022-09-20T13:04:56.178Z,943.11
2022-09-20T13:05:27.166Z,943.21
2022-09-20T13:05:58.360Z,943.21
2022-09-20T13:06:29.179Z,943.21
2022-09-20T13:07:00.129Z,943.21
2022-09-20T13:07:31.103Z,942.94
2022-09-20T13:08:02.174Z,942.94
2022-09-20T13:08:32.988Z,943.04
2022-09-20T13:09:04.089Z,943.04
2022-09-20T13:09:36.159Z,943.04
2022-09-20T13:10:06.174Z,943.04
2022-09-20T13:10:37.113Z,943.04
2022-09-20T13:11:08.147Z,943.04
2022-09-20T13:11:39.203Z,943.11
2022-09-20T13:12:10.330Z,943.04
2022-09-20T13:12:41.283Z,943.04
2022-09-20T13:13:12.282Z,943.21
2022-09-20T13:13:43.482Z,943.21
2022-09-20T13:14:14.194Z,942.94
2022-09-20T13:14:46.473Z,942.94
2022-09-20T13:15:18.830Z,943.41
2022-09-20T13:15:46.898Z,943.41
2022-09-20T13:16:19.749Z,943.11
2022-09-20T13:16:49.066Z,943.11
2022-09-20T13:17:20.149Z,943.11
2022-09-20T13:17:51.236Z,943.11
2022-09-20T13:18:22.176Z,943.11
2022-09-20T13:18:53.286Z,943.11
2022-09-20T13:19:24.210Z,943.11
2022-09-20T13:19:55.990Z,943.11
2022-09-20T13:20:26.164Z,943.04
2022-09-20T13:20:57.138Z,943.04
2022-09-20T13:21:28.323Z,943.11
2022-09-20T13:21:59.183Z,943.11
2022-09-20T13:22:30.104Z,943.11
2022-09-20T13:23:01.379Z,943.11
2022-09-20T13:23:32.222Z,943.04
2022-09-20T13:24:03.126Z,943.04
2022-09-20T13:24:34.135Z,942.94
2022-09-20T13:25:06.298Z,942.94
2022-09-20T13:25:36.283Z,943.31
2022-09-20T13:26:07.226Z,943.31
2022-09-20T13:26:38.185Z,943.21
2022-09-20T13:27:09.070Z,943.21
2022-09-20T13:27:40.214Z,943.11
2022-09-20T13:28:11.145Z,943.11
2022-09-20T13:28:46.185Z,943.11
2022-09-20T13:29:13.546Z,943.11
2022-09-20T13:29:44.286Z,943.11
2022-09-20T13:30:19.027Z,943.11
2022-09-20T13:30:46.542Z,943.11
2022-09-20T13:31:18.995Z,943.11
2022-09-20T13:31:48.109Z,943.11
2022-09-20T13:32:19.051Z,943.11
2022-09-20T13:32:50.170Z,943.11
2022-09-20T13:33:22.470Z,943.11
2022-09-20T13:33:52.187Z,943.11
2022-09-20T13:34:23.090Z,943.21